Time;durP1;ratioP1;P1;durP2;ratioP2;P2;SDS_P1;SDS_P2;PMS_P1;PMS_P2;Temp;Humidity;BMP_temperature;BMP_pressure;BME280_temperature;BME280_humidity;BME280_pressure;Samples;Min_cycle;Max_cycle;Signal;HPM_P1;HPM_P2
2022/05/17 00:00:35;;;;;;;37.78;7.53;;;;;;;15.94;77.42;100733.25;5029227;28;20028;-83
2022/05/17 00:03:00;;;;;;;32.58;6.72;;;;;;;15.98;77.29;100731.19;5014288;28;20112;-84
2022/05/17 00:05:27;;;;;;;34.67;7.03;;;;;;;16.05;76.89;100724.38;5029121;28;20022;-83
2022/05/17 00:07:53;;;;;;;38.50;7.97;;;;;;;16.11;76.61;100728.31;5019168;28;20041;-83
2022/05/17 00:10:19;;;;;;;34.97;7.45;;;;;;;16.09;76.60;100725.78;5034149;28;20486;-84
2022/05/17 00:12:44;;;;;;;36.83;7.68;;;;;;;16.12;76.66;100735.28;5032508;28;20041;-83
2022/05/17 00:15:10;;;;;;;30.77;7.75;;;;;;;16.23;75.88;100728.09;5033947;28;20048;-83
2022/05/17 00:17:36;;;;;;;31.40;8.15;;;;;;;16.20;76.07;100736.28;5030498;28;20365;-83
2022/05/17 00:20:01;;;;;;;43.25;7.68;;;;;;;16.19;76.23;100728.47;5013999;28;20101;-83
2022/05/17 00:22:27;;;;;;;27.27;6.57;;;;;;;16.28;75.81;100734.81;5013894;28;20049;-83
2022/05/17 00:24:52;;;;;;;38.50;7.05;;;;;;;16.30;75.60;100724.91;5013951;28;20041;-83
2022/05/17 00:27:18;;;;;;;36.40;6.78;;;;;;;16.42;75.46;100729.97;5014147;28;20022;-83
2022/05/17 00:29:44;;;;;;;36.13;7.90;;;;;;;16.34;75.66;100723.66;5032097;28;20029;-84
2022/05/17 00:32:10;;;;;;;37.78;6.88;;;;;;;16.55;75.58;100729.75;5033558;28;20048;-83
2022/05/17 00:34:35;;;;;;;33.45;7.88;;;;;;;16.46;76.23;100726.06;5033646;28;20029;-83
2022/05/17 00:37:01;;;;;;;29.83;7.32;;;;;;;16.60;75.36;100735.47;5033475;28;20025;-83
2022/05/17 00:39:26;;;;;;;37.28;8.10;;;;;;;16.46;75.79;100728.72;5033018;28;20113;-83
2022/05/17 00:41:51;;;;;;;35.72;6.88;;;;;;;16.48;76.28;100735.72;5032974;28;20439;-83
2022/05/17 00:47:10;;;;;;;39.83;8.38;;;;;;;16.63;74.82;100723.75;5033528;28;20091;-83
2022/05/17 00:49:42;;;;;;;33.03;7.97;;;;;;;16.67;75.07;100730.47;5031759;28;20082;-83
2022/05/17 00:52:40;;;;;;;28.90;7.28;;;;;;;16.56;75.74;100723.44;5033439;28;20030;-83
2022/05/17 00:55:18;;;;;;;35.08;8.20;;;;;;;16.41;76.30;100715.06;5032988;28;20060;-83
2022/05/17 00:57:56;;;;;;;28.60;7.20;;;;;;;16.60;75.45;100724.84;5029614;28;20025;-84
2022/05/17 01:00:24;;;;;;;33.55;7.47;;;;;;;16.51;76.17;100730.13;5013305;28;20029;-83
2022/05/17 01:02:54;;;;;;;36.25;7.05;;;;;;;16.52;75.58;100722.03;5022862;28;20073;-83
2022/05/17 01:05:22;;;;;;;27.10;5.70;;;;;;;16.57;75.63;100714.53;5032724;28;20060;-83
2022/05/17 01:07:52;;;;;;;30.20;7.13;;;;;;;16.50;75.41;100723.16;5030971;28;20030;-83
2022/05/17 01:10:17;;;;;;;37.00;6.55;;;;;;;16.46;75.70;100718.13;5032691;28;20028;-83
2022/05/17 01:12:43;;;;;;;26.63;7.15;;;;;;;16.50;75.64;100715.22;5031388;28;20104;-83
2022/05/17 01:15:11;;;;;;;31.05;6.57;;;;;;;16.26;76.82;100711.91;5031606;28;20029;-83
2022/05/17 01:17:38;;;;;;;39.17;7.97;;;;;;;16.35;76.25;100712.06;5031999;28;20494;-83
2022/05/17 01:20:08;;;;;;;28.48;6.72;;;;;;;16.35;76.28;100714.72;5030393;28;20072;-83
2022/05/17 01:22:33;;;;;;;30.20;7.03;;;;;;;16.30;75.91;100717.78;5032175;28;20030;-83
2022/05/17 01:24:59;;;;;;;32.65;7.40;;;;;;;16.11;76.83;100713.25;5032203;28;20068;-83
2022/05/17 01:27:30;;;;;;;33.67;7.55;;;;;;;16.23;76.40;100712.19;5032564;28;20045;-83
2022/05/17 01:29:55;;;;;;;31.05;8.63;;;;;;;16.20;76.45;100717.75;5030860;28;20097;-84
2022/05/17 01:32:22;;;;;;;32.97;7.72;;;;;;;16.20;77.04;100714.28;5032117;28;20071;-83
2022/05/17 01:34:47;;;;;;;36.00;8.20;;;;;;;16.09;77.32;100715.19;5032360;28;20033;-83
2022/05/17 01:37:14;;;;;;;29.92;7.88;;;;;;;16.03;76.70;100723.66;5032279;28;20026;-84
2022/05/17 01:39:40;;;;;;;28.42;7.15;;;;;;;16.04;77.24;100728.00;5026219;28;20519;-84
2022/05/17 01:42:06;;;;;;;34.42;7.65;;;;;;;15.93;77.67;100720.97;5012559;28;20030;-84
2022/05/17 01:44:32;;;;;;;37.80;8.23;;;;;;;15.91;78.01;100717.59;5012528;28;20480;-84
2022/05/17 01:46:58;;;;;;;41.45;7.85;;;;;;;15.78;79.22;100714.34;5012429;28;20036;-84
2022/05/17 01:49:23;;;;;;;31.35;6.78;;;;;;;15.91;78.40;100720.25;5013543;28;20057;-84
2022/05/17 01:51:48;;;;;;;31.63;7.43;;;;;;;15.92;78.35;100716.66;5012208;28;20024;-84
2022/05/17 01:54:14;;;;;;;34.88;8.00;;;;;;;15.84;78.26;100716.47;5011898;28;20504;-84
2022/05/17 01:56:40;;;;;;;31.25;7.20;;;;;;;15.85;77.52;100716.31;5012348;28;20112;-84
2022/05/17 01:59:05;;;;;;;36.90;7.80;;;;;;;15.80;78.67;100712.41;5012473;28;20069;-84
2022/05/17 02:01:30;;;;;;;29.58;7.30;;;;;;;15.80;78.36;100712.41;5013633;28;20100;-84
2022/05/17 02:03:56;;;;;;;38.08;8.07;;;;;;;15.74;78.52;100711.13;5012215;28;20022;-84
2022/05/17 02:06:22;;;;;;;32.60;7.05;;;;;;;15.75;77.83;100715.44;5011984;28;20049;-83
2022/05/17 02:08:48;;;;;;;20.17;5.93;;;;;;;15.67;77.93;100710.75;5012261;28;20034;-84
2022/05/17 02:11:13;;;;;;;39.08;9.70;;;;;;;15.57;78.34;100709.03;5014707;28;20072;-84
2022/05/17 02:13:39;;;;;;;24.65;6.57;;;;;;;15.53;77.66;100712.91;5012101;28;20075;-83
2022/05/17 02:16:05;;;;;;;19.20;5.80;;;;;;;15.47;77.53;100714.25;5012093;28;20036;-84
2022/05/17 02:18:31;;;;;;;18.90;5.10;;;;;;;15.34;77.27;100714.41;5012006;28;20026;-84
2022/05/17 02:20:56;;;;;;;16.52;5.35;;;;;;;15.22;77.66;100703.03;5012935;28;20030;-84
2022/05/17 02:23:21;;;;;;;26.30;5.80;;;;;;;15.22;77.46;100699.56;5011954;28;20029;-84
2022/05/17 02:25:47;;;;;;;27.65;6.82;;;;;;;15.15;77.53;100703.69;5012217;28;20112;-84
2022/05/17 02:28:13;;;;;;;17.48;5.97;;;;;;;15.07;78.54;100697.22;5012094;28;20109;-84
2022/05/17 02:30:41;;;;;;;23.77;5.90;;;;;;;15.13;77.71;100706.47;5013295;28;20062;-84
2022/05/17 02:33:07;;;;;;;24.98;6.45;;;;;;;15.06;78.47;100700.81;5011783;28;20034;-84
2022/05/17 02:35:32;;;;;;;20.35;6.82;;;;;;;15.13;78.42;100703.81;5011840;28;20018;-83
2022/05/17 02:37:58;;;;;;;18.42;5.97;;;;;;;15.21;78.70;100703.19;5011711;28;20076;-83
2022/05/17 02:40:23;;;;;;;25.38;6.43;;;;;;;15.16;79.32;100702.72;5036819;28;20087;-83
2022/05/17 02:42:48;;;;;;;27.00;5.28;;;;;;;15.25;78.78;100694.03;5031547;28;20029;-83
2022/05/17 02:45:14;;;;;;;22.80;5.32;;;;;;;15.36;78.84;100691.31;5031827;28;20373;-83
2022/05/17 02:47:40;;;;;;;17.98;5.10;;;;;;;15.44;78.43;100694.19;5030227;28;20017;-83
2022/05/17 02:50:06;;;;;;;18.52;4.50;;;;;;;15.46;78.80;100689.59;5031033;28;20175;-83
2022/05/17 02:52:31;;;;;;;26.85;5.28;;;;;;;15.56;78.44;100699.38;5031381;28;20044;-83
2022/05/17 02:54:56;;;;;;;25.80;6.05;;;;;;;15.64;78.48;100692.50;5031425;28;20021;-83
2022/05/17 02:57:22;;;;;;;32.60;5.80;;;;;;;15.71;79.03;100695.44;5031422;28;20033;-85
2022/05/17 02:59:47;;;;;;;23.98;5.25;;;;;;;15.81;78.75;100695.53;5029763;28;20034;-83
2022/05/17 03:02:12;;;;;;;27.65;5.25;;;;;;;15.94;78.20;100684.75;5030591;28;20052;-83
2022/05/17 03:04:38;;;;;;;24.30;5.30;;;;;;;15.93;78.16;100683.06;5030409;28;20520;-83
2022/05/17 03:07:03;;;;;;;24.80;4.57;;;;;;;16.04;77.75;100682.97;5032615;28;20475;-83
2022/05/17 03:09:28;;;;;;;17.90;4.68;;;;;;;16.09;77.88;100688.69;5019511;28;20033;-83
2022/05/17 03:11:54;;;;;;;26.00;5.00;;;;;;;16.09;78.17;100686.03;5015039;28;20435;-83
2022/05/17 03:14:21;;;;;;;22.25;5.00;;;;;;;16.15;77.44;100677.59;5015245;28;20030;-83
2022/05/17 03:16:47;;;;;;;26.80;5.00;;;;;;;16.09;78.80;100678.09;5015324;28;20377;-83
2022/05/17 03:19:13;;;;;;;26.73;5.47;;;;;;;16.14;78.39;100670.59;5016119;28;20140;-83
2022/05/17 03:21:38;;;;;;;21.65;4.72;;;;;;;16.28;77.57;100672.03;5015038;28;20571;-83
2022/05/17 03:24:04;;;;;;;21.88;5.63;;;;;;;16.35;77.51;100665.25;5015051;28;20029;-83
2022/05/17 03:26:29;;;;;;;20.60;4.78;;;;;;;16.38;77.13;100672.06;5015025;28;20025;-83
2022/05/17 03:28:58;;;;;;;21.08;5.40;;;;;;;16.38;77.26;100662.31;5016045;28;20040;-83
2022/05/17 03:31:24;;;;;;;22.55;7.00;;;;;;;16.36;79.06;100674.03;5014938;28;20022;-83
2022/05/17 03:33:49;;;;;;;18.40;7.10;;;;;;;16.44;79.41;100667.06;5015009;28;20054;-83
2022/05/17 03:36:14;;;;;;;24.45;7.57;;;;;;;16.41;79.52;100666.47;5015060;28;20472;-83
2022/05/17 03:38:40;;;;;;;50.90;8.43;;;;;;;16.50;79.55;100668.34;5022631;28;20462;-83
2022/05/17 03:41:05;;;;;;;27.33;8.60;;;;;;;16.46;80.51;100658.97;5034621;28;20426;-83
2022/05/17 03:43:31;;;;;;;21.02;8.32;;;;;;;16.64;79.16;100661.78;5034592;28;20025;-83
2022/05/17 03:45:57;;;;;;;29.23;9.07;;;;;;;16.45;80.06;100666.09;5034605;28;20025;-83
2022/05/17 03:48:25;;;;;;;28.65;8.40;;;;;;;16.60;79.34;100661.22;5032979;28;20032;-83
2022/05/17 03:50:51;;;;;;;25.48;9.50;;;;;;;16.57;78.90;100650.91;5034532;28;20049;-83
2022/05/17 03:53:17;;;;;;;27.63;9.43;;;;;;;16.47;80.17;100652.72;5034585;28;20040;-83
2022/05/17 03:55:42;;;;;;;28.40;9.10;;;;;;;16.67;79.34;100661.53;5034303;28;20018;-83
2022/05/17 03:58:08;;;;;;;33.03;9.50;;;;;;;16.63;79.11;100663.63;5046090;28;20116;-83
2022/05/17 04:00:34;;;;;;;29.27;8.45;;;;;;;16.75;78.23;100659.03;5029156;28;20033;-83
2022/05/17 04:03:00;;;;;;;24.13;9.35;;;;;;;16.71;78.42;100662.09;5034044;28;20045;-83
2022/05/17 04:05:26;;;;;;;27.80;9.40;;;;;;;16.53;79.27;100667.22;5034020;28;20498;-83
2022/05/17 04:07:51;;;;;;;23.65;9.50;;;;;;;16.48;80.15;100670.28;5032012;28;20034;-83
2022/05/17 04:10:17;;;;;;;31.50;9.13;;;;;;;16.64;78.50;100667.09;5014141;28;20026;-83
2022/05/17 04:12:42;;;;;;;28.67;10.43;;;;;;;16.50;79.20;100662.19;5014097;28;20034;-83
2022/05/17 04:15:12;;;;;;;27.50;9.07;;;;;;;16.62;78.06;100663.75;5014185;28;20080;-83
2022/05/17 04:17:38;;;;;;;31.33;9.63;;;;;;;16.53;78.29;100665.41;5013760;28;20450;-83
2022/05/17 04:20:04;;;;;;;21.55;9.57;;;;;;;16.53;77.88;100665.41;5014820;28;20117;-83
2022/05/17 04:22:29;;;;;;;21.35;7.65;;;;;;;16.57;77.41;100676.59;5013886;28;20030;-83
2022/05/17 04:24:56;;;;;;;27.42;10.18;;;;;;;16.35;78.69;100674.97;5013930;28;20026;-83
2022/05/17 04:27:22;;;;;;;22.23;8.57;;;;;;;16.42;78.54;100678.78;5014052;28;20069;-83
2022/05/17 04:29:48;;;;;;;25.48;8.70;;;;;;;16.43;78.57;100677.81;5014822;28;20038;-83
2022/05/17 04:32:13;;;;;;;24.70;9.73;;;;;;;16.34;79.29;100671.50;5012455;28;20455;-83
2022/05/17 04:34:39;;;;;;;29.60;10.10;;;;;;;16.19;80.85;100672.84;5029044;28;20030;-83
2022/05/17 04:37:04;;;;;;;25.75;9.23;;;;;;;16.35;78.96;100682.94;5013651;28;20477;-83
2022/05/17 04:39:30;;;;;;;26.88;11.07;;;;;;;16.33;79.40;100676.94;5026813;28;20068;-83
2022/05/17 04:41:56;;;;;;;24.42;9.32;;;;;;;16.29;78.99;100686.97;5033250;28;20032;-83
2022/05/17 04:44:21;;;;;;;23.00;8.27;;;;;;;16.26;79.08;100680.13;5033495;28;20021;-83
2022/05/17 04:46:47;;;;;;;17.70;7.45;;;;;;;16.26;79.25;100692.53;5033295;28;20108;-83
2022/05/17 04:49:12;;;;;;;18.85;7.53;;;;;;;16.29;78.72;100691.41;5023159;28;20503;-83
2022/05/17 04:51:38;;;;;;;16.45;8.50;;;;;;;16.29;78.28;100684.34;5014428;28;20025;-84
2022/05/17 04:54:03;;;;;;;17.13;8.43;;;;;;;16.27;79.16;100686.25;5018598;28;20510;-83
2022/05/17 04:56:28;;;;;;;12.65;6.68;;;;;;;16.33;78.17;100684.88;5032105;28;20071;-83
2022/05/17 04:58:54;;;;;;;18.58;8.02;;;;;;;16.35;77.79;100688.22;5024679;28;20049;-83
2022/05/17 05:01:21;;;;;;;19.33;7.47;;;;;;;16.37;77.69;100684.50;5013127;28;20103;-83
2022/05/17 05:03:46;;;;;;;18.75;8.45;;;;;;;16.40;77.50;100686.03;5014231;28;20066;-83
2022/05/17 05:06:11;;;;;;;25.08;9.15;;;;;;;16.35;77.20;100696.19;5023922;28;20014;-83
2022/05/17 05:08:37;;;;;;;16.75;6.75;;;;;;;16.36;77.32;100690.75;5014563;28;20540;-83
2022/05/17 05:11:02;;;;;;;15.45;7.22;;;;;;;16.33;76.94;100683.09;5029044;28;20396;-83
2022/05/17 05:13:28;;;;;;;24.02;9.52;;;;;;;16.23;78.35;100685.69;5017403;28;20033;-83
2022/05/17 05:15:56;;;;;;;20.40;9.50;;;;;;;16.22;77.92;100686.66;5016856;28;20036;-84
2022/05/17 05:18:22;;;;;;;14.15;7.45;;;;;;;16.22;77.71;100691.97;5032493;28;20031;-83
2022/05/17 05:20:47;;;;;;;15.75;7.25;;;;;;;16.21;77.52;100697.38;5014424;28;20476;-83
2022/05/17 05:23:13;;;;;;;17.73;8.68;;;;;;;16.17;78.42;100699.50;5032243;28;20028;-83
2022/05/17 05:25:39;;;;;;;24.63;9.75;;;;;;;16.25;78.19;100699.66;5032001;28;20035;-82
2022/05/17 05:28:07;;;;;;;14.48;7.15;;;;;;;16.30;77.77;100706.38;5028098;28;20080;-82
2022/05/17 05:30:33;;;;;;;16.90;8.30;;;;;;;16.32;78.26;100705.25;5026778;28;20562;-84
2022/05/17 05:32:58;;;;;;;13.80;7.13;;;;;;;16.31;77.99;100700.94;5030233;28;20121;-84
2022/05/17 05:35:25;;;;;;;21.27;9.10;;;;;;;16.39;78.05;100703.75;5019237;28;20045;-82
2022/05/17 05:37:51;;;;;;;15.10;8.30;;;;;;;16.43;77.58;100702.50;5012472;28;20025;-82
2022/05/17 05:40:17;;;;;;;15.40;8.52;;;;;;;16.53;77.69;100712.28;5013518;28;20088;-82
2022/05/17 05:42:43;;;;;;;17.98;8.05;;;;;;;16.70;77.57;100713.44;5010980;28;20080;-82
2022/05/17 05:45:09;;;;;;;16.25;8.15;;;;;;;16.83;76.50;100709.59;5029277;28;20029;-82
2022/05/17 05:47:35;;;;;;;22.40;10.40;;;;;;;17.01;76.05;100717.72;5032175;28;20025;-82
2022/05/17 05:50:01;;;;;;;18.25;9.32;;;;;;;17.17;75.58;100721.63;5030450;28;20045;-82
2022/05/17 05:52:26;;;;;;;18.83;8.68;;;;;;;17.37;74.93;100727.78;5032127;28;20391;-82
2022/05/17 05:54:52;;;;;;;20.10;10.73;;;;;;;17.48;75.47;100724.16;5031812;28;20032;-82
2022/05/17 05:57:17;;;;;;;22.63;9.13;;;;;;;17.68;74.14;100723.13;5047065;28;20025;-82
2022/05/17 05:59:43;;;;;;;22.48;11.05;;;;;;;17.74;73.51;100724.38;5030045;28;20041;-82
2022/05/17 06:02:09;;;;;;;21.48;9.43;;;;;;;17.83;73.11;100720.84;5031767;28;20041;-82
2022/05/17 06:04:35;;;;;;;19.33;8.95;;;;;;;18.03;72.28;100719.03;5031909;28;20122;-82
2022/05/17 06:07:00;;;;;;;15.35;9.32;;;;;;;18.19;71.82;100726.38;5031980;28;20532;-82
2022/05/17 06:09:26;;;;;;;17.08;8.80;;;;;;;17.95;71.68;100722.41;5025034;28;20034;-82
2022/05/17 06:11:52;;;;;;;15.27;8.27;;;;;;;18.18;70.36;100725.50;5026219;28;20037;-83
2022/05/17 06:14:20;;;;;;;16.90;8.38;;;;;;;18.38;70.36;100720.97;5029378;28;20036;-83
2022/05/17 06:16:46;;;;;;;14.93;8.07;;;;;;;18.78;68.88;100732.25;5027165;28;20029;-82
2022/05/17 06:19:12;;;;;;;18.83;8.23;;;;;;;18.86;68.95;100731.50;5026014;28;20534;-82
2022/05/17 06:21:37;;;;;;;24.75;9.68;;;;;;;18.91;68.05;100719.41;5026212;28;20384;-82
2022/05/17 06:24:03;;;;;;;15.10;7.15;;;;;;;19.38;66.34;100721.84;5026727;28;20029;-82
2022/05/17 06:26:29;;;;;;;14.00;6.63;;;;;;;20.07;65.01;100711.34;5026103;28;20519;-82
2022/05/17 06:28:54;;;;;;;12.77;6.47;;;;;;;20.84;62.17;100715.84;5026189;28;20029;-83
2022/05/17 06:31:20;;;;;;;16.27;5.38;;;;;;;20.99;61.03;100711.50;5025551;28;20029;-83
2022/05/17 06:33:45;;;;;;;11.75;5.60;;;;;;;21.08;60.16;100715.03;5041717;28;20053;-84
2022/05/17 06:36:10;;;;;;;12.05;5.43;;;;;;;20.89;60.95;100711.69;5026555;28;20021;-83
2022/05/17 06:38:36;;;;;;;15.48;5.97;;;;;;;20.34;61.61;100712.13;5026487;28;20419;-83
2022/05/17 06:41:03;;;;;;;10.88;4.90;;;;;;;20.93;58.95;100714.84;5033614;28;20041;-83
2022/05/17 06:43:29;;;;;;;11.02;4.50;;;;;;;20.88;58.75;100710.00;5010495;28;20032;-84
2022/05/17 06:45:54;;;;;;;14.73;4.40;;;;;;;20.62;59.30;100714.59;5010827;28;20034;-85
2022/05/17 06:48:20;;;;;;;12.38;4.10;;;;;;;20.62;59.47;100711.91;5025687;28;20504;-84
2022/05/17 06:50:46;;;;;;;10.27;4.32;;;;;;;20.60;59.86;100710.28;5019047;28;20021;-85
2022/05/17 06:53:11;;;;;;;10.80;3.95;;;;;;;20.43;60.31;100716.50;5029199;28;20044;-88
2022/05/17 06:55:37;;;;;;;9.50;3.28;;;;;;;20.40;61.05;100703.50;5028152;28;20104;-83
2022/05/17 06:58:03;;;;;;;15.48;6.15;;;;;;;20.41;60.81;100711.31;5030058;28;20399;-84
2022/05/17 07:00:29;;;;;;;13.80;3.75;;;;;;;20.52;59.67;100702.22;5029686;28;20264;-84
2022/05/17 07:02:54;;;;;;;10.55;3.80;;;;;;;20.94;59.11;100703.16;5029240;28;20683;-84
2022/05/17 07:05:20;;;;;;;11.32;3.45;;;;;;;21.34;57.05;100685.50;5029460;28;20554;-84
2022/05/17 07:07:45;;;;;;;13.27;3.42;;;;;;;21.84;55.85;100700.50;5028312;28;20482;-83
2022/05/17 07:13:08;;;;;;;9.02;1.95;;;;;;;21.97;53.05;100699.94;5030639;28;20036;-84
2022/05/17 07:15:37;;;;;;;10.38;2.20;;;;;;;22.14;52.68;100701.56;5029282;28;20041;-85
2022/05/17 07:18:04;;;;;;;12.55;3.13;;;;;;;22.74;51.38;100699.31;5030808;28;20029;-84
2022/05/17 07:20:30;;;;;;;12.88;3.20;;;;;;;23.08;50.49;100700.78;5029974;28;20036;-84
2022/05/17 07:22:55;;;;;;;12.13;2.70;;;;;;;24.23;48.83;100710.41;5029467;28;20029;-84
2022/05/17 07:25:21;;;;;;;8.05;2.13;;;;;;;24.00;49.06;100705.97;5043834;28;20033;-84
2022/05/17 07:27:46;;;;;;;7.70;2.30;;;;;;;24.15;49.01;100706.81;5029636;28;20125;-85
2022/05/17 07:30:12;;;;;;;6.85;2.25;;;;;;;24.87;47.38;100707.06;5028159;28;20659;-85
2022/05/17 07:32:38;;;;;;;7.32;2.60;;;;;;;26.26;44.70;100706.50;5030441;28;20061;-84
2022/05/17 07:35:06;;;;;;;10.45;3.03;;;;;;;28.14;40.58;100694.84;5030691;28;20021;-85
2022/05/17 07:37:32;;;;;;;15.75;3.13;;;;;;;29.06;39.92;100698.94;5031208;28;20022;-85
2022/05/17 07:39:58;;;;;;;12.38;2.85;;;;;;;30.92;36.16;100689.88;5027471;28;20128;-85
2022/05/17 07:42:23;;;;;;;6.72;2.20;;;;;;;32.57;33.22;100694.41;5025550;28;20030;-85
2022/05/17 07:44:48;;;;;;;9.68;2.53;;;;;;;32.99;32.93;100696.78;5028886;28;20110;-85
2022/05/17 07:47:14;;;;;;;8.77;2.65;;;;;;;33.00;32.74;100687.56;5030624;28;20478;-85
2022/05/17 07:49:39;;;;;;;7.50;2.47;;;;;;;34.44;30.86;100695.03;5027225;28;20063;-86
2022/05/17 07:52:06;;;;;;;6.90;2.75;;;;;;;34.56;30.54;100698.44;5027908;28;20037;-86
2022/05/17 07:54:31;;;;;;;7.53;2.25;;;;;;;34.55;30.38;100688.59;5029615;28;20029;-86
2022/05/17 07:56:57;;;;;;;11.20;2.60;;;;;;;34.25;30.38;100698.09;5045207;28;20029;-86
2022/05/17 07:59:22;;;;;;;9.98;2.30;;;;;;;34.93;29.43;100703.16;5029981;28;20033;-86
2022/05/17 08:01:48;;;;;;;10.98;2.63;;;;;;;34.95;29.47;100698.28;5028881;28;20348;-86
2022/05/17 08:04:13;;;;;;;9.93;2.42;;;;;;;34.56;30.42;100698.44;5028645;28;20025;-86
2022/05/17 08:06:39;;;;;;;7.63;1.92;;;;;;;35.65;28.88;100692.81;5030074;28;20021;-83
2022/05/17 08:09:05;;;;;;;7.65;2.53;;;;;;;35.72;29.67;100698.88;5030141;28;20036;-84
2022/05/17 08:11:31;;;;;;;9.98;2.45;;;;;;;33.77;30.04;100680.59;5028646;28;20041;-83
2022/05/17 08:13:57;;;;;;;8.10;2.17;;;;;;;33.56;31.91;100696.59;5030100;28;20072;-86
2022/05/17 08:16:22;;;;;;;6.38;1.42;;;;;;;35.23;29.74;100691.72;5029851;28;20107;-83
2022/05/17 08:18:47;;;;;;;8.70;2.45;;;;;;;36.11;29.38;100690.31;5029883;28;20042;-84
2022/05/17 08:21:13;;;;;;;5.70;1.52;;;;;;;35.86;27.32;100694.59;5026890;28;20029;-84
2022/05/17 08:23:38;;;;;;;6.72;1.23;;;;;;;35.80;26.76;100703.00;5030705;28;20037;-85
2022/05/17 08:28:48;;;;;;;8.07;1.92;;;;;;;36.93;26.47;100696.00;5013577;28;20519;-82
2022/05/17 08:31:13;;;;;;;6.25;1.63;;;;;;;35.91;26.72;100691.88;5024341;28;20037;-83
2022/05/17 08:33:38;;;;;;;8.27;1.90;;;;;;;34.16;28.13;100686.00;5033210;28;20018;-84
2022/05/17 08:36:07;;;;;;;4.00;1.27;;;;;;;34.44;27.90;100684.97;5031371;28;20437;-84
2022/05/17 08:38:38;;;;;;;7.25;1.50;;;;;;;35.85;27.09;100683.94;5033284;28;20489;-84
2022/05/17 08:41:24;;;;;;;8.95;1.80;;;;;;;36.18;26.64;100679.16;5032493;28;20029;-84
2022/05/17 08:43:51;;;;;;;7.20;1.80;;;;;;;36.03;25.89;100686.19;5016937;28;20083;-84
2022/05/17 08:46:23;;;;;;;6.75;1.67;;;;;;;36.13;26.65;100686.22;5032794;28;20033;-84
2022/05/17 08:48:57;;;;;;;8.52;1.63;;;;;;;36.50;25.94;100684.44;5033253;28;20052;-84
2022/05/17 08:51:39;;;;;;;8.10;1.88;;;;;;;35.22;26.99;100690.06;5024886;28;20464;-84
2022/05/17 08:54:07;;;;;;;4.25;1.48;;;;;;;36.60;26.01;100686.38;5031205;28;20092;-84
2022/05/17 08:56:38;;;;;;;7.05;1.77;;;;;;;34.91;26.83;100686.25;5031627;28;20199;-84
2022/05/17 08:59:05;;;;;;;6.93;1.67;;;;;;;34.01;27.84;100683.06;5033048;28;20056;-84
2022/05/17 09:01:46;;;;;;;11.02;1.85;;;;;;;34.11;28.01;100666.84;5032159;28;20025;-83
2022/05/17 09:04:23;;;;;;;7.93;1.70;;;;;;;33.64;28.81;100672.78;5031641;28;20026;-83
2022/05/17 09:07:05;;;;;;;9.00;1.65;;;;;;;33.64;29.04;100665.44;5031329;28;20060;-83
2022/05/17 09:09:58;;;;;;;6.63;2.17;;;;;;;32.85;29.72;100665.53;5032690;28;20093;-83
2022/05/17 09:12:35;;;;;;;7.40;1.92;;;;;;;34.07;30.78;100671.16;5016016;28;20116;-83
2022/05/17 09:15:01;;;;;;;5.72;1.50;;;;;;;32.76;31.49;100671.38;5022298;28;20029;-83
2022/05/17 09:17:28;;;;;;;12.57;1.95;;;;;;;33.62;29.15;100659.41;5032674;28;20505;-85
2022/05/17 09:19:54;;;;;;;8.57;1.73;;;;;;;32.35;31.18;100659.72;5032796;28;20029;-83
2022/05/17 09:22:21;;;;;;;8.90;1.60;;;;;;;34.11;29.15;100664.94;5013898;28;20022;-84
2022/05/17 09:24:54;;;;;;;8.43;2.03;;;;;;;33.66;29.64;100660.56;5019767;28;20021;-83
2022/05/17 09:27:39;;;;;;;8.15;2.10;;;;;;;33.22;30.35;100660.47;5032891;28;20026;-83
2022/05/17 09:30:12;;;;;;;11.35;2.00;;;;;;;33.77;29.66;100658.81;5032726;28;20091;-83
2022/05/17 09:32:44;;;;;;;9.32;2.38;;;;;;;33.34;30.06;100654.91;5012925;28;20109;-83
2022/05/17 09:35:18;;;;;;;10.00;1.85;;;;;;;33.41;29.97;100646.56;5024098;28;20120;-83
2022/05/17 09:37:57;;;;;;;8.85;1.77;;;;;;;32.62;30.44;100647.47;5032582;28;20069;-83
2022/05/17 09:40:37;;;;;;;8.13;1.85;;;;;;;31.28;31.85;100643.81;5032298;28;20040;-83
2022/05/17 09:43:06;;;;;;;11.57;2.72;;;;;;;31.07;32.62;100642.53;5032789;28;20529;-83
2022/05/17 09:45:45;;;;;;;5.15;1.58;;;;;;;31.04;33.85;100643.81;5032195;28;20468;-83
2022/05/17 09:48:11;;;;;;;7.35;1.63;;;;;;;31.07;33.10;100635.22;5032575;28;20518;-83
2022/05/17 09:53:51;;;;;;;8.38;1.77;;;;;;;32.17;31.98;100625.44;5032422;28;20064;-83
2022/05/17 09:56:25;;;;;;;7.43;1.60;;;;;;;33.09;30.42;100628.97;5032088;28;20499;-83
2022/05/17 09:58:50;;;;;;;6.68;1.70;;;;;;;32.45;31.03;100625.69;5032067;28;20103;-85
2022/05/17 10:01:28;;;;;;;9.52;2.45;;;;;;;33.10;30.39;100632.53;5031654;28;20022;-84
2022/05/17 10:04:08;;;;;;;9.43;1.70;;;;;;;34.14;28.91;100625.47;5030638;28;20025;-85
2022/05/17 10:06:37;;;;;;;8.77;1.92;;;;;;;33.47;29.96;100616.44;5020301;28;20025;-85
2022/05/17 10:09:12;;;;;;;8.63;1.90;;;;;;;32.85;31.20;100622.03;5012342;28;20113;-85
2022/05/17 10:11:52;;;;;;;12.32;2.00;;;;;;;34.09;29.77;100620.78;5012271;28;20029;-86
2022/05/17 10:14:36;;;;;;;8.43;2.05;;;;;;;32.72;30.32;100631.31;5015471;28;20444;-86
2022/05/17 10:17:07;;;;;;;7.43;1.80;;;;;;;31.67;32.28;100625.19;5030791;28;20103;-85
2022/05/17 10:19:32;;;;;;;;;;;;;;;33.10;30.54;100614.31;5031977;28;20056;-86
2022/05/17 10:22:08;;;;;;;8.63;1.83;;;;;;;32.57;30.44;100604.72;5031870;28;20360;-86
2022/05/17 10:24:43;;;;;;;8.27;2.10;;;;;;;33.14;30.22;100601.03;5030502;28;20270;-86
2022/05/17 10:27:27;;;;;;;8.40;1.63;;;;;;;32.13;30.87;100604.41;5014408;28;20531;-86
2022/05/17 10:29:55;;;;;;;8.57;1.63;;;;;;;31.64;32.09;100610.22;5011907;28;20041;-86
2022/05/17 10:32:30;;;;;;;9.35;1.98;;;;;;;31.23;32.11;100596.53;5012003;28;20028;-85
2022/05/17 10:35:07;;;;;;;7.75;1.80;;;;;;;31.59;31.52;100594.63;5020557;28;20655;-85
2022/05/17 10:37:57;;;;;;;9.93;2.38;;;;;;;31.14;32.65;100589.84;5028369;28;20033;-86
2022/05/17 10:40:29;;;;;;;11.10;2.08;;;;;;;31.13;32.46;100593.59;5029710;28;20022;-84
2022/05/17 10:42:56;;;;;;;8.18;1.73;;;;;;;31.23;32.83;100585.69;5029334;28;20029;-86
2022/05/17 10:45:33;;;;;;;12.55;2.83;;;;;;;31.02;33.70;100586.28;5028632;28;20030;-85
2022/05/17 10:48:11;;;;;;;6.72;1.80;;;;;;;29.88;33.81;100588.97;5011906;28;20029;-85
2022/05/17 10:50:56;;;;;;;9.85;2.08;;;;;;;29.80;34.00;100573.84;5011895;28;20104;-86
2022/05/17 10:53:46;;;;;;;9.77;2.05;;;;;;;30.03;34.67;100576.69;5011747;28;20087;-85
2022/05/17 10:56:11;;;;;;;13.68;2.38;;;;;;;29.97;35.25;100574.88;5015462;28;20069;-86
2022/05/17 10:58:53;;;;;;;8.75;1.88;;;;;;;29.98;34.66;100573.03;5010287;28;20472;-87
2022/05/17 11:01:47;;;;;;;8.82;2.00;;;;;;;29.94;34.85;100563.69;5012707;28;20030;-85
2022/05/17 11:04:21;;;;;;;8.25;1.55;;;;;;;29.81;34.65;100562.00;5015550;28;20105;-85
2022/05/17 11:07:17;;;;;;;10.25;2.08;;;;;;;30.73;33.60;100545.47;5030272;28;20029;-85
2022/05/17 11:10:19;;;;;;;7.82;1.60;;;;;;;30.99;32.90;100541.47;5030308;28;20029;-85
2022/05/17 11:12:52;;;;;;;11.73;2.03;;;;;;;30.81;33.75;100528.84;5030729;28;20026;-85
2022/05/17 11:15:26;;;;;;;11.05;2.20;;;;;;;30.30;33.64;100535.69;5028259;28;20036;-85
2022/05/17 11:18:01;;;;;;;8.60;1.92;;;;;;;31.35;33.06;100530.59;5030597;28;20052;-85
2022/05/17 11:20:53;;;;;;;9.98;1.98;;;;;;;31.74;33.79;100525.44;5030769;28;20112;-84
2022/05/17 11:23:40;;;;;;;8.25;1.63;;;;;;;32.33;31.58;100511.63;5030605;28;20045;-83
2022/05/17 11:26:27;;;;;;;6.30;1.90;;;;;;;33.01;31.60;100515.13;5028342;28;20033;-84
2022/05/17 11:28:52;;;;;;;7.05;1.95;;;;;;;32.10;32.71;100518.00;5033783;28;20045;-85
2022/05/17 11:31:56;;;;;;;7.83;2.10;;;;;;;32.27;31.95;100516.13;5032651;28;20025;-86
2022/05/17 11:34:33;;;;;;;10.57;2.53;;;;;;;32.23;32.78;100509.53;5034679;28;20254;-86
2022/05/17 11:37:05;;;;;;;11.48;2.22;;;;;;;32.15;32.08;100497.19;5024092;28;20049;-86